^^
Saratoga-Weather Station Historical Data
Daily Summary for May 25, 2021 Units:  Both    English   Metric
Daily Weekly Monthly Yearly Custom
  High: Low: Average:
Temperature: 58.5 °F /  14.7 °C 45 °F /  7.2 °C 49.5 °F /  9.7 °C
Dew Point: 47.3 °F /  8.5 °C 42.1 °F /  5.6 °C 44.4 °F /  6.9 °C
Humidity: 93% 58% 84%
Wind Speed: 16.1mph /  25.9km/h - 3.8mph /  6.1km/h
Wind Gust: 21mph /  33.8km/h - -
Wind- - WSW
Pressure: 30.1 in /  1018.0 hPa 29.9 in /  1011.9 hPa -
Precipitation: 0.31 in /  7.9 mm    
Historical Graphs
 
 
Tabular Data for May 25, 2021
Time Temperature Dew Point Pressure Wind Wind Speed Wind Gust Humidity Rainfall Rate (Hourly) solar
00:00 45.3 °F /  7.4 °C 42.6 °F /  5.9 °C 29.9in /  1011.9hPa WNW 0.9mph /  1.4km/h 3mph /  4.8km/h 90% 0in /  0.0mm 0 W/m2
00:05 45.3 °F /  7.4 °C 42.3 °F /  5.7 °C 29.9in /  1011.9hPa Calm   6mph /  9.7km/h 89% 0in /  0.0mm 0 W/m2
00:10 45.3 °F /  7.4 °C 42.6 °F /  5.9 °C 29.9in /  1011.9hPa NW 0.9mph /  1.4km/h 1mph /  1.6km/h 90% 0in /  0.0mm 0 W/m2
00:15 45.3 °F /  7.4 °C 42.6 °F /  5.9 °C 29.9in /  1011.9hPa NE 2.9mph /  4.7km/h 4mph /  6.4km/h 90% 0in /  0.0mm 0 W/m2
00:20 45.1 °F /  7.3 °C 42.1 °F /  5.6 °C 29.9in /  1012.2hPa NW 0.9mph /  1.4km/h 8mph /  12.9km/h 89% 0in /  0.0mm 0 W/m2
00:25 45.3 °F /  7.4 °C 42.6 °F /  5.9 °C 29.9in /  1012.2hPa Calm   1mph /  1.6km/h 90% 0in /  0.0mm 0 W/m2
00:30 45.1 °F /  7.3 °C 42.4 °F /  5.8 °C 29.9in /  1012.2hPa NE 2mph /  3.2km/h 8mph /  12.9km/h 90% 0in /  0.0mm 0 W/m2
00:35 45.3 °F /  7.4 °C 42.6 °F /  5.9 °C 29.9in /  1012.2hPa NNE 4mph /  6.4km/h 4mph /  6.4km/h 90% 0in /  0.0mm 0 W/m2
00:40 45.3 °F /  7.4 °C 42.6 °F /  5.9 °C 29.9in /  1012.2hPa Calm   5mph /  8km/h 90% 0in /  0.0mm 0 W/m2
00:45 45.3 °F /  7.4 °C 42.3 °F /  5.7 °C 29.9in /  1012.2hPa East 2.9mph /  4.7km/h 3mph /  4.8km/h 89% 0in /  0.0mm 0 W/m2
00:50 45.3 °F /  7.4 °C 42.3 °F /  5.7 °C 29.9in /  1012.2hPa ENE 0.9mph /  1.4km/h 2mph /  3.2km/h 89% 0in /  0.0mm 0 W/m2
00:55 45.3 °F /  7.4 °C 42.3 °F /  5.7 °C 29.9in /  1012.2hPa Calm   2mph /  3.2km/h 89% 0in /  0.0mm 0 W/m2
01:00 45.3 °F /  7.4 °C 42.6 °F /  5.9 °C 29.9in /  1012.2hPa Calm     90% 0in /  0.0mm 0 W/m2
01:05 45.3 °F /  7.4 °C 42.6 °F /  5.9 °C 29.9in /  1012.2hPa WNW 0.9mph /  1.4km/h 3mph /  4.8km/h 90% 0in /  0.0mm 0 W/m2
01:10 45.3 °F /  7.4 °C 42.6 °F /  5.9 °C 29.9in /  1012.2hPa NW 0.9mph /  1.4km/h 3mph /  4.8km/h 90% 0in /  0.0mm 0 W/m2
01:15 45.3 °F /  7.4 °C 42.6 °F /  5.9 °C 29.9in /  1012.5hPa North 0.9mph /  1.4km/h 6mph /  9.7km/h 90% 0in /  0.0mm 0 W/m2
01:20 45.5 °F /  7.5 °C 42.8 °F /  6 °C 29.9in /  1012.5hPa North 0.9mph /  1.4km/h 2mph /  3.2km/h 90% 0in /  0.0mm 0 W/m2
01:25 45.7 °F /  7.6 °C 43 °F /  6.1 °C 29.9in /  1012.5hPa WNW 2.9mph /  4.7km/h 7mph /  11.3km/h 90% 0in /  0.0mm 0 W/m2
01:30 45.7 °F /  7.6 °C 43 °F /  6.1 °C 29.9in /  1012.5hPa NNW 0.9mph /  1.4km/h 7mph /  11.3km/h 90% 0in /  0.0mm 0 W/m2
01:35 45.7 °F /  7.6 °C 43 °F /  6.1 °C 29.9in /  1012.5hPa WSW 0.9mph /  1.4km/h 2mph /  3.2km/h 90% 0in /  0.0mm 0 W/m2
01:40 45.9 °F /  7.7 °C 43.2 °F /  6.2 °C 29.9in /  1012.5hPa SE 2.9mph /  4.7km/h 6mph /  9.7km/h 90% 0in /  0.0mm 0 W/m2
01:45 45.9 °F /  7.7 °C 43.2 °F /  6.2 °C 29.9in /  1012.5hPa Calm   2mph /  3.2km/h 90% 0in /  0.0mm 0 W/m2
01:50 45.9 °F /  7.7 °C 43.2 °F /  6.2 °C 29.9in /  1012.5hPa SSE 0.9mph /  1.4km/h 2mph /  3.2km/h 90% 0in /  0.0mm 0 W/m2
01:55 45.9 °F /  7.7 °C 43.2 °F /  6.2 °C 29.9in /  1012.5hPa WNW 2.9mph /  4.7km/h 4mph /  6.4km/h 90% 0in /  0.0mm 0 W/m2
02:00 45.9 °F /  7.7 °C 42.8 °F /  6 °C 29.9in /  1012.5hPa Calm   2mph /  3.2km/h 89% 0in /  0.0mm 0 W/m2
02:05 45.9 °F /  7.7 °C 42.8 °F /  6 °C 29.9in /  1012.5hPa West 0.9mph /  1.4km/h 9mph /  14.5km/h 89% 0in /  0.0mm 0 W/m2
02:10 45.9 °F /  7.7 °C 42.8 °F /  6 °C 29.9in /  1012.5hPa ENE 2.9mph /  4.7km/h 3mph /  4.8km/h 89% 0in /  0.0mm 0 W/m2
02:15 46 °F /  7.8 °C 43 °F /  6.1 °C 29.9in /  1012.5hPa West 8.9mph /  14.3km/h 9mph /  14.5km/h 89% 0in /  0.0mm 0 W/m2
02:20 46 °F /  7.8 °C 42.6 °F /  5.9 °C 29.9in /  1012.5hPa North 0.9mph /  1.4km/h 2mph /  3.2km/h 88% 0in /  0.0mm 0 W/m2
02:25 46 °F /  7.8 °C 42.6 °F /  5.9 °C 29.9in /  1012.5hPa WSW 0.9mph /  1.4km/h 6mph /  9.7km/h 88% 0in /  0.0mm 0 W/m2
02:30 46 °F /  7.8 °C 42.6 °F /  5.9 °C 29.9in /  1012.9hPa WNW 2.9mph /  4.7km/h 4mph /  6.4km/h 88% 0in /  0.0mm 0 W/m2
02:35 46 °F /  7.8 °C 42.6 °F /  5.9 °C 29.9in /  1012.5hPa West 6mph /  9.7km/h 6mph /  9.7km/h 88% 0in /  0.0mm 0 W/m2
02:40 46 °F /  7.8 °C 42.6 °F /  5.9 °C 29.9in /  1012.5hPa NE 2.9mph /  4.7km/h 3mph /  4.8km/h 88% 0in /  0.0mm 0 W/m2
02:45 46 °F /  7.8 °C 42.6 °F /  5.9 °C 29.9in /  1012.5hPa NW 0.9mph /  1.4km/h 4mph /  6.4km/h 88% 0in /  0.0mm 0 W/m2
02:50 46.2 °F /  7.9 °C 42.8 °F /  6 °C 29.9in /  1012.9hPa NNW 2.9mph /  4.7km/h 7mph /  11.3km/h 88% 0in /  0.0mm 0 W/m2
02:55 46.2 °F /  7.9 °C 42.8 °F /  6 °C 29.9in /  1012.5hPa North 0.9mph /  1.4km/h 4mph /  6.4km/h 88% 0in /  0.0mm 0 W/m2
03:00 46.2 °F /  7.9 °C 42.8 °F /  6 °C 29.9in /  1012.5hPa ENE 6mph /  9.7km/h 8mph /  12.9km/h 88% 0in /  0.0mm 0 W/m2
03:05 46.2 °F /  7.9 °C 42.8 °F /  6 °C 29.9in /  1012.5hPa NE 2mph /  3.2km/h 5mph /  8km/h 88% 0in /  0.0mm 0 W/m2
03:10 46.2 °F /  7.9 °C 42.6 °F /  5.9 °C 29.9in /  1012.5hPa NW 6mph /  9.7km/h 8mph /  12.9km/h 87% 0in /  0.0mm 0 W/m2
03:15 46.2 °F /  7.9 °C 42.6 °F /  5.9 °C 29.9in /  1012.9hPa West 2mph /  3.2km/h 3mph /  4.8km/h 87% 0in /  0.0mm 0 W/m2
03:20 46.2 °F /  7.9 °C 42.6 °F /  5.9 °C 29.9in /  1012.5hPa West 4mph /  6.4km/h 8mph /  12.9km/h 87% 0in /  0.0mm 0 W/m2
03:25 46.2 °F /  7.9 °C 42.6 °F /  5.9 °C 29.9in /  1012.5hPa NW 0.9mph /  1.4km/h 6mph /  9.7km/h 87% 0in /  0.0mm 0 W/m2
03:30 46.2 °F /  7.9 °C 42.6 °F /  5.9 °C 29.9in /  1012.5hPa SE 0.9mph /  1.4km/h 3mph /  4.8km/h 87% 0in /  0.0mm 0 W/m2
03:35 46.4 °F /  8 °C 42.8 °F /  6 °C 29.9in /  1012.5hPa NW 2.9mph /  4.7km/h 4mph /  6.4km/h 87% 0in /  0.0mm 0 W/m2
03:40 46.4 °F /  8 °C 42.8 °F /  6 °C 29.9in /  1012.5hPa NNW 0.9mph /  1.4km/h 7mph /  11.3km/h 87% 0in /  0.0mm 0 W/m2
03:45 46.4 °F /  8 °C 42.8 °F /  6 °C 29.9in /  1012.5hPa NW 0.9mph /  1.4km/h 3mph /  4.8km/h 87% 0in /  0.0mm 0 W/m2
03:50 46.4 °F /  8 °C 42.4 °F /  5.8 °C 29.9in /  1012.5hPa ENE 2mph /  3.2km/h 4mph /  6.4km/h 86% 0in /  0.0mm 0 W/m2
03:55 46.2 °F /  7.9 °C 42.3 °F /  5.7 °C 29.9in /  1012.5hPa SSE 2mph /  3.2km/h 6mph /  9.7km/h 86% 0in /  0.0mm 0 W/m2
04:00 46.2 °F /  7.9 °C 42.6 °F /  5.9 °C 29.9in /  1012.5hPa SW 2mph /  3.2km/h 5mph /  8km/h 87% 0in /  0.0mm 0 W/m2
04:05 46.2 °F /  7.9 °C 42.6 °F /  5.9 °C 29.9in /  1012.5hPa WNW 0.9mph /  1.4km/h 5mph /  8km/h 87% 0in /  0.0mm 0 W/m2
04:10 46 °F /  7.8 °C 42.4 °F /  5.8 °C 29.9in /  1012.5hPa WNW 6.9mph /  11.1km/h 9mph /  14.5km/h 87% 0in /  0.0mm 0 W/m2
04:15 46.2 °F /  7.9 °C 42.6 °F /  5.9 °C 29.9in /  1012.5hPa NW 4mph /  6.4km/h 5mph /  8km/h 87% 0in /  0.0mm 0 W/m2
04:20 46 °F /  7.8 °C 42.4 °F /  5.8 °C 29.9in /  1012.5hPa WNW 6.9mph /  11.1km/h 10mph /  16.1km/h 87% 0in /  0.0mm 0 W/m2
04:25 46 °F /  7.8 °C 42.4 °F /  5.8 °C 29.9in /  1012.5hPa WNW 2.9mph /  4.7km/h 7mph /  11.3km/h 87% 0in /  0.0mm 0 W/m2
04:30 46 °F /  7.8 °C 42.4 °F /  5.8 °C 29.9in /  1012.5hPa WNW 2.9mph /  4.7km/h 8mph /  12.9km/h 87% 0in /  0.0mm 0 W/m2
04:35 46 °F /  7.8 °C 42.4 °F /  5.8 °C 29.9in /  1012.9hPa SW 8.1mph /  13km/h 10mph /  16.1km/h 87% 0in /  0.0mm 0 W/m2
04:40 45.9 °F /  7.7 °C 42.4 °F /  5.8 °C 29.9in /  1012.9hPa WNW 6.9mph /  11.1km/h 8mph /  12.9km/h 88% 0.01in /  0.2mm 0 W/m2
04:45 45.7 °F /  7.6 °C 42.6 °F /  5.9 °C 29.9in /  1012.9hPa NW 2mph /  3.2km/h 5mph /  8km/h 89% 0.01in /  0.2mm 0 W/m2
04:50 45.7 °F /  7.6 °C 42.6 °F /  5.9 °C 29.9in /  1012.9hPa SSW 4mph /  6.4km/h 5mph /  8km/h 89% 0.01in /  0.2mm 0 W/m2
04:55 45.5 °F /  7.5 °C 42.4 °F /  5.8 °C 29.9in /  1012.9hPa NNW 2.9mph /  4.7km/h 3mph /  4.8km/h 89% 0.01in /  0.2mm 0 W/m2
05:00 45.5 °F /  7.5 °C 42.8 °F /  6 °C 29.9in /  1012.9hPa NNW 2mph /  3.2km/h 5mph /  8km/h 90% 0.02in /  0.5mm 0 W/m2
05:05 45.5 °F /  7.5 °C 42.8 °F /  6 °C 29.9in /  1012.9hPa SSW 2mph /  3.2km/h 4mph /  6.4km/h 90% 0.02in /  0.5mm 0 W/m2
05:10 45.5 °F /  7.5 °C 42.8 °F /  6 °C 29.9in /  1012.9hPa WNW 2mph /  3.2km/h 7mph /  11.3km/h 90% 0.02in /  0.5mm 0 W/m2
05:15 45.5 °F /  7.5 °C 42.8 °F /  6 °C 29.9in /  1012.9hPa NNW 4mph /  6.4km/h 5mph /  8km/h 90% 0.02in /  0.5mm 0 W/m2
05:20 45.5 °F /  7.5 °C 42.8 °F /  6 °C 29.9in /  1012.9hPa WNW 4mph /  6.4km/h 6mph /  9.7km/h 90% 0.02in /  0.5mm 0 W/m2
05:25 45.5 °F /  7.5 °C 42.8 °F /  6 °C 29.9in /  1012.9hPa North 0.9mph /  1.4km/h 4mph /  6.4km/h 90% 0.02in /  0.5mm 0 W/m2
05:30 45.5 °F /  7.5 °C 42.8 °F /  6 °C 29.9in /  1012.9hPa NW 2mph /  3.2km/h 7mph /  11.3km/h 90% 0.02in /  0.5mm 0 W/m2
05:35 45.5 °F /  7.5 °C 42.8 °F /  6 °C 29.9in /  1012.9hPa North 2.9mph /  4.7km/h 10mph /  16.1km/h 90% 0.02in /  0.5mm 0 W/m2
05:40 45.3 °F /  7.4 °C 42.6 °F /  5.9 °C 29.9in /  1012.9hPa Calm   11mph /  17.7km/h 90% 0.01in /  0.2mm 0 W/m2
05:45 45.3 °F /  7.4 °C 42.6 °F /  5.9 °C 29.9in /  1012.9hPa WNW 4mph /  6.4km/h 7mph /  11.3km/h 90% 0.01in /  0.2mm 0 W/m2
05:50 45.3 °F /  7.4 °C 42.6 °F /  5.9 °C 29.9in /  1013.2hPa North 2mph /  3.2km/h 10mph /  16.1km/h 90% 0.01in /  0.2mm 0 W/m2
05:55 45.3 °F /  7.4 °C 42.6 °F /  5.9 °C 29.9in /  1013.2hPa West 2mph /  3.2km/h 7mph /  11.3km/h 90% 0.01in /  0.2mm 0 W/m2
06:00 45.1 °F /  7.3 °C 42.4 °F /  5.8 °C 29.9in /  1013.2hPa WSW 2.9mph /  4.7km/h 10mph /  16.1km/h 90% 0in /  0.0mm 0 W/m2
06:05 45.1 °F /  7.3 °C 42.4 °F /  5.8 °C 29.9in /  1013.2hPa NW 4.9mph /  7.9km/h 8mph /  12.9km/h 90% 0in /  0.0mm 0 W/m2
06:10 45.1 °F /  7.3 °C 42.4 °F /  5.8 °C 29.9in /  1013.2hPa North 0.9mph /  1.4km/h 13mph /  20.9km/h 90% 0in /  0.0mm 7 W/m2
06:15 45.1 °F /  7.3 °C 42.4 °F /  5.8 °C 29.9in /  1013.2hPa NNE 4mph /  6.4km/h 8mph /  12.9km/h 90% 0in /  0.0mm 9 W/m2
06:21 45.1 °F /  7.3 °C 42.4 °F /  5.8 °C 29.9in /  1013.2hPa West 2mph /  3.2km/h 9mph /  14.5km/h 90% 0in /  0.0mm 5 W/m2
06:26 45.1 °F /  7.3 °C 42.6 °F /  5.9 °C 29.9in /  1013.5hPa NW 4mph /  6.4km/h 6mph /  9.7km/h 91% 0in /  0.0mm 5 W/m2
06:31 45 °F /  7.2 °C 42.4 °F /  5.8 °C 29.9in /  1013.5hPa NW 4mph /  6.4km/h 5mph /  8km/h 91% 0in /  0.0mm 5 W/m2
06:36 45 °F /  7.2 °C 42.4 °F /  5.8 °C 29.9in /  1013.5hPa South 0.9mph /  1.4km/h 9mph /  14.5km/h 91% 0in /  0.0mm 9 W/m2
06:41 45.1 °F /  7.3 °C 42.6 °F /  5.9 °C 29.9in /  1013.5hPa West 4mph /  6.4km/h 11mph /  17.7km/h 91% 0in /  0.0mm 14 W/m2
06:46 45.1 °F /  7.3 °C 42.6 °F /  5.9 °C 29.9in /  1013.5hPa NW 2.9mph /  4.7km/h 8mph /  12.9km/h 91% 0.01in /  0.2mm 5 W/m2
06:51 45.1 °F /  7.3 °C 42.4 °F /  5.8 °C 29.9in /  1013.5hPa West 2.9mph /  4.7km/h 9mph /  14.5km/h 90% 0.01in /  0.2mm 18 W/m2
06:56 45.1 °F /  7.3 °C 42.6 °F /  5.9 °C 29.9in /  1013.9hPa West 8.9mph /  14.3km/h 13mph /  20.9km/h 91% 0.01in /  0.2mm 25 W/m2
07:01 45 °F /  7.2 °C 42.4 °F /  5.8 °C 29.9in /  1013.9hPa West 6.9mph /  11.1km/h 7mph /  11.3km/h 91% 0.02in /  0.5mm 12 W/m2
07:06 45 °F /  7.2 °C 42.4 °F /  5.8 °C 29.9in /  1013.9hPa NW 2.9mph /  4.7km/h 13mph /  20.9km/h 91% 0.02in /  0.5mm 12 W/m2
07:11 45 °F /  7.2 °C 42.4 °F /  5.8 °C 29.9in /  1013.9hPa NNW 2.9mph /  4.7km/h 8mph /  12.9km/h 91% 0.02in /  0.5mm 11 W/m2
07:16 45 °F /  7.2 °C 42.4 °F /  5.8 °C 30in /  1014.2hPa WNW 8.9mph /  14.3km/h 17mph /  27.4km/h 91% 0.02in /  0.5mm 40 W/m2
07:21 45 °F /  7.2 °C 42.4 °F /  5.8 °C 30in /  1014.2hPa West 2mph /  3.2km/h 11mph /  17.7km/h 91% 0.02in /  0.5mm 46 W/m2
07:26 45.1 °F /  7.3 °C 42.6 °F /  5.9 °C 30in /  1014.2hPa NW 2.9mph /  4.7km/h 17mph /  27.4km/h 91% 0.02in /  0.5mm 53 W/m2
07:31 45.1 °F /  7.3 °C 42.6 °F /  5.9 °C 30in /  1014.2hPa WNW 0.9mph /  1.4km/h 10mph /  16.1km/h 91% 0.02in /  0.5mm 77 W/m2
07:36 45.1 °F /  7.3 °C 42.6 °F /  5.9 °C 30in /  1014.2hPa West 2.9mph /  4.7km/h 7mph /  11.3km/h 91% 0.02in /  0.5mm 54 W/m2
07:41 45.3 °F /  7.4 °C 42.8 °F /  6 °C 30in /  1014.6hPa SW 8.1mph /  13km/h 10mph /  16.1km/h 91% 0.02in /  0.5mm 67 W/m2
07:46 45.1 °F /  7.3 °C 42.6 °F /  5.9 °C 30in /  1014.6hPa West 4mph /  6.4km/h 9mph /  14.5km/h 91% 0.03in /  0.8mm 32 W/m2
07:51 45.1 °F /  7.3 °C 42.6 °F /  5.9 °C 30in /  1014.6hPa WSW 4.9mph /  7.9km/h 10mph /  16.1km/h 91% 0.03in /  0.8mm 35 W/m2
07:56 45.1 °F /  7.3 °C 42.6 °F /  5.9 °C 30in /  1014.6hPa West 6mph /  9.7km/h 8mph /  12.9km/h 91% 0.04in /  1.0mm 26 W/m2
08:01 45.1 °F /  7.3 °C 43 °F /  6.1 °C 30in /  1014.6hPa WNW 0.9mph /  1.4km/h 10mph /  16.1km/h 92% 0.04in /  1.0mm 47 W/m2
08:06 45.1 °F /  7.3 °C 43 °F /  6.1 °C 30in /  1014.6hPa WSW 4mph /  6.4km/h 8mph /  12.9km/h 92% 0.04in /  1.0mm 37 W/m2
08:11 45.1 °F /  7.3 °C 43 °F /  6.1 °C 30in /  1014.9hPa NW 2mph /  3.2km/h 15mph /  24.1km/h 92% 0.04in /  1.0mm 37 W/m2
08:16 45.1 °F /  7.3 °C 43 °F /  6.1 °C 30in /  1014.9hPa West 6.9mph /  11.1km/h 8mph /  12.9km/h 92% 0.04in /  1.0mm 44 W/m2
08:21 45.1 °F /  7.3 °C 43 °F /  6.1 °C 30in /  1014.9hPa WSW 2mph /  3.2km/h 16mph /  25.7km/h 92% 0.04in /  1.0mm 37 W/m2
08:26 45.1 °F /  7.3 °C 42.6 °F /  5.9 °C 30in /  1014.9hPa West 8.9mph /  14.3km/h 14mph /  22.5km/h 91% 0.04in /  1.0mm 30 W/m2
08:31 45.1 °F /  7.3 °C 42.6 °F /  5.9 °C 30in /  1015.2hPa WSW 4.9mph /  7.9km/h 16mph /  25.7km/h 91% 0.04in /  1.0mm 130 W/m2
08:36 45.3 °F /  7.4 °C 42.8 °F /  6 °C 30in /  1015.2hPa NNW 2mph /  3.2km/h 11mph /  17.7km/h 91% 0.04in /  1.0mm 193 W/m2
08:41 45.5 °F /  7.5 °C 43 °F /  6.1 °C 30in /  1015.2hPa NW 8.1mph /  13km/h 12mph /  19.3km/h 91% 0.05in /  1.3mm 69 W/m2
08:46 45.5 °F /  7.5 °C 43 °F /  6.1 °C 30in /  1015.2hPa North 4mph /  6.4km/h 11mph /  17.7km/h 91% 0.04in /  1.0mm 79 W/m2
08:51 45.3 °F /  7.4 °C 43.2 °F /  6.2 °C 30in /  1015.2hPa WSW 6.9mph /  11.1km/h 7mph /  11.3km/h 92% 0.05in /  1.3mm 74 W/m2
08:56 45.3 °F /  7.4 °C 43.2 °F /  6.2 °C 30in /  1015.6hPa SW 2.9mph /  4.7km/h 6mph /  9.7km/h 92% 0.05in /  1.3mm 60 W/m2
09:01 45.3 °F /  7.4 °C 43.2 °F /  6.2 °C 30in /  1015.6hPa West 6mph /  9.7km/h 6mph /  9.7km/h 92% 0.04in /  1.0mm 90 W/m2
09:06 45.7 °F /  7.6 °C 43.5 °F /  6.4 °C 30in /  1015.6hPa West 8.1mph /  13km/h 9mph /  14.5km/h 92% 0.04in /  1.0mm 139 W/m2
09:11 45.9 °F /  7.7 °C 43.7 °F /  6.5 °C 30in /  1015.6hPa West 2.9mph /  4.7km/h 12mph /  19.3km/h 92% 0.04in /  1.0mm 132 W/m2
09:16 45.9 °F /  7.7 °C 43.7 °F /  6.5 °C 30in /  1015.6hPa WNW 4mph /  6.4km/h 9mph /  14.5km/h 92% 0.05in /  1.3mm 135 W/m2
09:21 46 °F /  7.8 °C 43.9 °F /  6.6 °C 30in /  1015.9hPa ENE 2.9mph /  4.7km/h 12mph /  19.3km/h 92% 0.06in /  1.5mm 100 W/m2
09:26 46 °F /  7.8 °C 43.9 °F /  6.6 °C 30in /  1015.9hPa WNW 2.9mph /  4.7km/h 8mph /  12.9km/h 92% 0.06in /  1.5mm 70 W/m2
09:31 46 °F /  7.8 °C 43.9 °F /  6.6 °C 30in /  1015.9hPa West 4mph /  6.4km/h 8mph /  12.9km/h 92% 0.06in /  1.5mm 72 W/m2
09:36 46.2 °F /  7.9 °C 44.1 °F /  6.7 °C 30in /  1016.3hPa West 6.9mph /  11.1km/h 9mph /  14.5km/h 92% 0.07in /  1.8mm 127 W/m2
09:41 46.2 °F /  7.9 °C 44.1 °F /  6.7 °C 30in /  1016.3hPa West 8.1mph /  13km/h 16mph /  25.7km/h 92% 0.07in /  1.8mm 195 W/m2
09:46 46.4 °F /  8 °C 44.2 °F /  6.8 °C 30in /  1016.3hPa WNW 6.9mph /  11.1km/h 17mph /  27.4km/h 92% 0.07in /  1.8mm 98 W/m2
09:51 46.6 °F /  8.1 °C 44.4 °F /  6.9 °C 30in /  1016.3hPa NW 16.1mph /  25.9km/h 16mph /  25.7km/h 92% 0.06in /  1.5mm 167 W/m2
09:56 46.8 °F /  8.2 °C 44.6 °F /  7 °C 30in /  1016.3hPa West 4mph /  6.4km/h 10mph /  16.1km/h 92% 0.06in /  1.5mm 299 W/m2
10:01 47.1 °F /  8.4 °C 45 °F /  7.2 °C 30in /  1016.3hPa WSW 8.1mph /  13km/h 16mph /  25.7km/h 92% 0.06in /  1.5mm 114 W/m2
10:06 47.1 °F /  8.4 °C 44.6 °F /  7 °C 30in /  1016.6hPa West 6mph /  9.7km/h 12mph /  19.3km/h 91% 0.06in /  1.5mm 104 W/m2
10:11 47.1 °F /  8.4 °C 44.6 °F /  7 °C 30in /  1016.6hPa WSW 4mph /  6.4km/h 8mph /  12.9km/h 91% 0.05in /  1.3mm 63 W/m2
10:16 47.1 °F /  8.4 °C 44.6 °F /  7 °C 30in /  1016.6hPa West 4mph /  6.4km/h 10mph /  16.1km/h 91% 0.04in /  1.0mm 65 W/m2
10:21 47.1 °F /  8.4 °C 44.6 °F /  7 °C 30in /  1016.6hPa NW 4.9mph /  7.9km/h 10mph /  16.1km/h 91% 0.03in /  0.8mm 93 W/m2
10:26 47.1 °F /  8.4 °C 44.6 °F /  7 °C 30in /  1016.9hPa NW 2.9mph /  4.7km/h 7mph /  11.3km/h 91% 0.03in /  0.8mm 58 W/m2
10:31 47.1 °F /  8.4 °C 44.6 °F /  7 °C 30in /  1016.9hPa WNW 4.9mph /  7.9km/h 9mph /  14.5km/h 91% 0.03in /  0.8mm 93 W/m2
10:36 47.1 °F /  8.4 °C 44.6 °F /  7 °C 30in /  1016.9hPa West 11mph /  17.7km/h 12mph /  19.3km/h 91% 0.02in /  0.5mm 127 W/m2
10:41 47.5 °F /  8.6 °C 45 °F /  7.2 °C 30in /  1016.9hPa WNW 6.9mph /  11.1km/h 7mph /  11.3km/h 91% 0.02in /  0.5mm 139 W/m2
10:46 47.7 °F /  8.7 °C 45 °F /  7.2 °C 30in /  1017.3hPa WNW 2mph /  3.2km/h 13mph /  20.9km/h 90% 0.02in /  0.5mm 218 W/m2
10:51 48 °F /  8.9 °C 45.5 °F /  7.5 °C 30in /  1017.3hPa West 6mph /  9.7km/h 9mph /  14.5km/h 91% 0.02in /  0.5mm 248 W/m2
10:56 48.4 °F /  9.1 °C 45.5 °F /  7.5 °C 30in /  1017.3hPa SSE 2mph /  3.2km/h 9mph /  14.5km/h 90% 0.02in /  0.5mm 262 W/m2
11:01 48.6 °F /  9.2 °C 45.7 °F /  7.6 °C 30in /  1017.3hPa NNW 4.9mph /  7.9km/h 13mph /  20.9km/h 90% 0.02in /  0.5mm 338 W/m2
11:06 48.9 °F /  9.4 °C 46 °F /  7.8 °C 30in /  1017.3hPa WNW 2.9mph /  4.7km/h 11mph /  17.7km/h 90% 0.02in /  0.5mm 346 W/m2
11:11 49.3 °F /  9.6 °C 46.2 °F /  7.9 °C 30in /  1017.3hPa NW 2.9mph /  4.7km/h 8mph /  12.9km/h 89% 0.02in /  0.5mm 346 W/m2
11:16 49.8 °F /  9.9 °C 46.8 °F /  8.2 °C 30in /  1017.3hPa West 6mph /  9.7km/h 8mph /  12.9km/h 89% 0.02in /  0.5mm 290 W/m2
11:21 50.2 °F /  10.1 °C 46.4 °F /  8 °C 30in /  1017.3hPa West 6.9mph /  11.1km/h 14mph /  22.5km/h 87% 0.02in /  0.5mm 301 W/m2
11:26 50.7 °F /  10.4 °C 46.9 °F /  8.3 °C 30in /  1017.3hPa NNW 6mph /  9.7km/h 6mph /  9.7km/h 87% 0.01in /  0.2mm 209 W/m2
11:31 51.1 °F /  10.6 °C 46.8 °F /  8.2 °C 30in /  1017.3hPa NW 2.9mph /  4.7km/h 13mph /  20.9km/h 85% 0.01in /  0.2mm 838 W/m2
11:36 51.6 °F /  10.9 °C 47.3 °F /  8.5 °C 30in /  1017.3hPa West 6mph /  9.7km/h 9mph /  14.5km/h 85% 0in /  0.0mm 345 W/m2
11:41 52.2 °F /  11.2 °C 47.1 °F /  8.4 °C 30.1in /  1017.6hPa WSW 2mph /  3.2km/h 21mph /  33.8km/h 83% 0in /  0.0mm 962 W/m2
11:46 51.8 °F /  11 °C 46.4 °F /  8 °C 30.1in /  1017.6hPa WSW 2.9mph /  4.7km/h 14mph /  22.5km/h 82% 0in /  0.0mm 276 W/m2
11:51 51.4 °F /  10.8 °C 46.2 °F /  7.9 °C 30.1in /  1017.6hPa NNE 2.9mph /  4.7km/h 21mph /  33.8km/h 82% 0in /  0.0mm 362 W/m2
11:56 51.4 °F /  10.8 °C 46.2 °F /  7.9 °C 30in /  1017.3hPa NNW 8.9mph /  14.3km/h 9mph /  14.5km/h 82% 0in /  0.0mm 343 W/m2
12:01 51.6 °F /  10.9 °C 46.2 °F /  7.9 °C 30.1in /  1017.6hPa WNW 4mph /  6.4km/h 11mph /  17.7km/h 82% 0in /  0.0mm 754 W/m2
12:06 52.2 °F /  11.2 °C 46.8 °F /  8.2 °C 30.1in /  1017.6hPa WSW 4.9mph /  7.9km/h 10mph /  16.1km/h 82% 0in /  0.0mm 508 W/m2
12:11 52.5 °F /  11.4 °C 46.6 °F /  8.1 °C 30.1in /  1017.6hPa WNW 8.1mph /  13km/h 12mph /  19.3km/h 80% 0in /  0.0mm 826 W/m2
12:16 52.9 °F /  11.6 °C 46.6 °F /  8.1 °C 30.1in /  1017.6hPa NW 8.1mph /  13km/h 10mph /  16.1km/h 79% 0in /  0.0mm 281 W/m2
12:21 52.9 °F /  11.6 °C 45.9 °F /  7.7 °C 30.1in /  1017.6hPa NW 4.9mph /  7.9km/h 12mph /  19.3km/h 77% 0in /  0.0mm 294 W/m2
12:26 52.9 °F /  11.6 °C 46.2 °F /  7.9 °C 30.1in /  1017.6hPa WNW 4.9mph /  7.9km/h 10mph /  16.1km/h 78% 0in /  0.0mm 322 W/m2
12:31 53.2 °F /  11.8 °C 46.6 °F /  8.1 °C 30.1in /  1017.6hPa West 6mph /  9.7km/h 7mph /  11.3km/h 78% 0in /  0.0mm 881 W/m2
12:36 53.8 °F /  12.1 °C 46.8 °F /  8.2 °C 30.1in /  1017.6hPa WSW 8.9mph /  14.3km/h 11mph /  17.7km/h 77% 0in /  0.0mm 381 W/m2
12:41 54.1 °F /  12.3 °C 46.4 °F /  8 °C 30.1in /  1017.6hPa North 2.9mph /  4.7km/h 10mph /  16.1km/h 75% 0in /  0.0mm 898 W/m2
12:46 54.5 °F /  12.5 °C 45.3 °F /  7.4 °C 30.1in /  1017.6hPa WNW 14.1mph /  22.7km/h 19mph /  30.6km/h 71% 0in /  0.0mm 515 W/m2
12:51 54.9 °F /  12.7 °C 46.8 °F /  8.2 °C 30.1in /  1017.6hPa WNW 15mph /  24.1km/h 15mph /  24.1km/h 74% 0in /  0.0mm 1055 W/m2
12:56 55.2 °F /  12.9 °C 46 °F /  7.8 °C 30.1in /  1018.0hPa West 4mph /  6.4km/h 19mph /  30.6km/h 71% 0in /  0.0mm 1055 W/m2
13:01 55.2 °F /  12.9 °C 46 °F /  7.8 °C 30.1in /  1017.6hPa NNW 4mph /  6.4km/h 8mph /  12.9km/h 71% 0in /  0.0mm 860 W/m2
13:06 55.6 °F /  13.1 °C 46 °F /  7.8 °C 30.1in /  1017.6hPa NW 15mph /  24.1km/h 15mph /  24.1km/h 70% 0in /  0.0mm 1034 W/m2
13:11 55.6 °F /  13.1 °C 45.1 °F /  7.3 °C 30.1in /  1018.0hPa NNE 4mph /  6.4km/h 10mph /  16.1km/h 68% 0in /  0.0mm 251 W/m2
13:16 55 °F /  12.8 °C 45.1 °F /  7.3 °C 30.1in /  1018.0hPa North 2mph /  3.2km/h 18mph /  29km/h 69% 0in /  0.0mm 329 W/m2
13:22 55.2 °F /  12.9 °C 44.8 °F /  7.1 °C 30.1in /  1017.6hPa WNW 6mph /  9.7km/h 16mph /  25.7km/h 68% 0in /  0.0mm 969 W/m2
13:27 55.8 °F /  13.2 °C 45.3 °F /  7.4 °C 30.1in /  1017.6hPa West 8.1mph /  13km/h 16mph /  25.7km/h 68% 0in /  0.0mm 364 W/m2
13:32 55.8 °F /  13.2 °C 44.2 °F /  6.8 °C 30.1in /  1018.0hPa NW 2mph /  3.2km/h 15mph /  24.1km/h 65% 0in /  0.0mm 404 W/m2
13:37 55.8 °F /  13.2 °C 44.2 °F /  6.8 °C 30.1in /  1017.6hPa WNW 10.1mph /  16.3km/h 21mph /  33.8km/h 65% 0in /  0.0mm 1030 W/m2
13:42 56.1 °F /  13.4 °C 45.3 °F /  7.4 °C 30.1in /  1017.6hPa West 6.9mph /  11.1km/h 13mph /  20.9km/h 67% 0in /  0.0mm 1018 W/m2
13:47 56.8 °F /  13.8 °C 45.7 °F /  7.6 °C 30.1in /  1018.0hPa WNW 6.9mph /  11.1km/h 21mph /  33.8km/h 66% 0in /  0.0mm 983 W/m2
13:52 57.2 °F /  14 °C 43.5 °F /  6.4 °C 30.1in /  1018.0hPa West 10.1mph /  16.3km/h 18mph /  29km/h 60% 0in /  0.0mm 1086 W/m2
13:57 56.8 °F /  13.8 °C 43.5 °F /  6.4 °C 30.1in /  1017.6hPa WNW 2.9mph /  4.7km/h 10mph /  16.1km/h 61% 0in /  0.0mm 234 W/m2
14:02 56.7 °F /  13.7 °C 42.4 °F /  5.8 °C 30.1in /  1018.0hPa WNW 6.9mph /  11.1km/h 17mph /  27.4km/h 59% 0in /  0.0mm 1034 W/m2
14:07 57 °F /  13.9 °C 42.8 °F /  6 °C 30.1in /  1017.6hPa NW 4mph /  6.4km/h 14mph /  22.5km/h 59% 0in /  0.0mm 884 W/m2
14:12 57.2 °F /  14 °C 42.6 °F /  5.9 °C 30.1in /  1017.6hPa WNW 8.1mph /  13km/h 11mph /  17.7km/h 58% 0in /  0.0mm 1065 W/m2
14:17 57.6 °F /  14.2 °C 43.3 °F /  6.3 °C 30.1in /  1017.6hPa SW 2mph /  3.2km/h 12mph /  19.3km/h 59% 0in /  0.0mm 1151 W/m2
14:22 57.7 °F /  14.3 °C 43.9 °F /  6.6 °C 30.1in /  1017.6hPa SW 2mph /  3.2km/h 10mph /  16.1km/h 60% 0in /  0.0mm 341 W/m2
14:27 57.7 °F /  14.3 °C 44.4 °F /  6.9 °C 30.1in /  1017.6hPa West 2mph /  3.2km/h 8mph /  12.9km/h 61% 0in /  0.0mm 341 W/m2
14:32 58.1 °F /  14.5 °C 44.8 °F /  7.1 °C 30.1in /  1017.6hPa SW 4.9mph /  7.9km/h 11mph /  17.7km/h 61% 0in /  0.0mm 946 W/m2
14:37 57.9 °F /  14.4 °C 44.1 °F /  6.7 °C 30.1in /  1017.6hPa SSE 8.1mph /  13km/h 16mph /  25.7km/h 60% 0in /  0.0mm 800 W/m2
14:42 57.6 °F /  14.2 °C 44.2 °F /  6.8 °C 30in /  1017.3hPa WNW 4mph /  6.4km/h 13mph /  20.9km/h 61% 0in /  0.0mm 236 W/m2
14:47 57 °F /  13.9 °C 44.1 °F /  6.7 °C 30in /  1017.3hPa WNW 2.9mph /  4.7km/h 16mph /  25.7km/h 62% 0in /  0.0mm 323 W/m2
14:52 57.2 °F /  14 °C 44.2 °F /  6.8 °C 30in /  1017.3hPa West 6mph /  9.7km/h 15mph /  24.1km/h 62% 0in /  0.0mm 323 W/m2
14:57 57 °F /  13.9 °C 43.7 °F /  6.5 °C 30in /  1017.3hPa West 8.9mph /  14.3km/h 20mph /  32.2km/h 61% 0in /  0.0mm 512 W/m2
15:02 57.4 °F /  14.1 °C 45 °F /  7.2 °C 30in /  1017.3hPa WNW 4.9mph /  7.9km/h 15mph /  24.1km/h 63% 0in /  0.0mm 501 W/m2
15:07 57.6 °F /  14.2 °C 44.2 °F /  6.8 °C 30.1in /  1017.6hPa West 8.1mph /  13km/h 20mph /  32.2km/h 61% 0in /  0.0mm 1176 W/m2
15:12 57.7 °F /  14.3 °C 43.9 °F /  6.6 °C 30in /  1017.3hPa North 8.9mph /  14.3km/h 12mph /  19.3km/h 60% 0in /  0.0mm 1176 W/m2
15:17 57.7 °F /  14.3 °C 44.4 °F /  6.9 °C 30in /  1017.3hPa WNW 4mph /  6.4km/h 14mph /  22.5km/h 61% 0in /  0.0mm 466 W/m2
15:22 57.4 °F /  14.1 °C 44.1 °F /  6.7 °C 30in /  1017.3hPa WSW 6.9mph /  11.1km/h 10mph /  16.1km/h 61% 0in /  0.0mm 223 W/m2
15:27 57 °F /  13.9 °C 44.1 °F /  6.7 °C 30in /  1017.3hPa NNW 2mph /  3.2km/h 10mph /  16.1km/h 62% 0in /  0.0mm 387 W/m2
15:32 57.4 °F /  14.1 °C 44.4 °F /  6.9 °C 30in /  1017.3hPa WSW 8.1mph /  13km/h 8mph /  12.9km/h 62% 0in /  0.0mm 805 W/m2
15:37 57.9 °F /  14.4 °C 45 °F /  7.2 °C 30in /  1017.3hPa West 2mph /  3.2km/h 9mph /  14.5km/h 62% 0in /  0.0mm 316 W/m2
15:42 57.6 °F /  14.2 °C 43.7 °F /  6.5 °C 30in /  1017.3hPa WSW 4.9mph /  7.9km/h 11mph /  17.7km/h 60% 0in /  0.0mm 234 W/m2
15:47 57.6 °F /  14.2 °C 43.7 °F /  6.5 °C 30in /  1016.9hPa NNW 8.1mph /  13km/h 11mph /  17.7km/h 60% 0in /  0.0mm 809 W/m2
15:52 58.1 °F /  14.5 °C 45.1 °F /  7.3 °C 30in /  1016.9hPa NW 8.9mph /  14.3km/h 9mph /  14.5km/h 62% 0in /  0.0mm 684 W/m2
15:57 58.5 °F /  14.7 °C 43.7 °F /  6.5 °C 30in /  1016.9hPa West 8.1mph /  13km/h 10mph /  16.1km/h 58% 0in /  0.0mm 682 W/m2
16:02 58.5 °F /  14.7 °C 44.2 °F /  6.8 °C 30in /  1016.9hPa NNW 8.1mph /  13km/h 12mph /  19.3km/h 59% 0in /  0.0mm 216 W/m2
16:07 57.9 °F /  14.4 °C 43.7 °F /  6.5 °C 30in /  1016.9hPa WNW 2.9mph /  4.7km/h 12mph /  19.3km/h 59% 0in /  0.0mm 160 W/m2
16:12 57.6 °F /  14.2 °C 43.7 °F /  6.5 °C 30in /  1017.3hPa NW 4.9mph /  7.9km/h 10mph /  16.1km/h 60% 0in /  0.0mm 141 W/m2
16:17 56.8 °F /  13.8 °C 43.9 °F /  6.6 °C 30in /  1017.3hPa WNW 2.9mph /  4.7km/h 11mph /  17.7km/h 62% 0in /  0.0mm 76 W/m2
16:22 56.1 °F /  13.4 °C 44.6 °F /  7 °C 30in /  1017.3hPa WNW 4.9mph /  7.9km/h 8mph /  12.9km/h 65% 0in /  0.0mm 86 W/m2
16:27 55.6 °F /  13.1 °C 45.1 °F /  7.3 °C 30in /  1017.3hPa NW 2.9mph /  4.7km/h 7mph /  11.3km/h 68% 0in /  0.0mm 195 W/m2
16:32 55 °F /  12.8 °C 45.9 °F /  7.7 °C 30in /  1017.3hPa West 8.1mph /  13km/h 8mph /  12.9km/h 71% 0in /  0.0mm 255 W/m2
16:37 54.5 °F /  12.5 °C 45.3 °F /  7.4 °C 30in /  1017.3hPa WSW 4.9mph /  7.9km/h 12mph /  19.3km/h 71% 0in /  0.0mm 359 W/m2
16:42 54.1 °F /  12.3 °C 46 °F /  7.8 °C 30in /  1017.3hPa West 6mph /  9.7km/h 9mph /  14.5km/h 74% 0in /  0.0mm 234 W/m2
16:47 53.8 °F /  12.1 °C 45.7 °F /  7.6 °C 30in /  1017.3hPa NW 4mph /  6.4km/h 12mph /  19.3km/h 74% 0in /  0.0mm 142 W/m2
16:52 53.4 °F /  11.9 °C 46 °F /  7.8 °C 30in /  1017.3hPa WNW 8.1mph /  13km/h 12mph /  19.3km/h 76% 0in /  0.0mm 86 W/m2
16:57 53.1 °F /  11.7 °C 46 °F /  7.8 °C 30.1in /  1017.6hPa WNW 8.9mph /  14.3km/h 9mph /  14.5km/h 77% 0in /  0.0mm 97 W/m2
17:02 52.5 °F /  11.4 °C 46.2 °F /  7.9 °C 30.1in /  1017.6hPa West 10.1mph /  16.3km/h 16mph /  25.7km/h 79% 0.01in /  0.2mm 67 W/m2
17:07 52 °F /  11.1 °C 46 °F /  7.8 °C 30.1in /  1017.6hPa WNW 8.1mph /  13km/h 15mph /  24.1km/h 80% 0.01in /  0.2mm 81 W/m2
17:12 51.6 °F /  10.9 °C 46 °F /  7.8 °C 30.1in /  1017.6hPa SW 2.9mph /  4.7km/h 14mph /  22.5km/h 81% 0.01in /  0.2mm 90 W/m2
17:17 51.4 °F /  10.8 °C 46.2 °F /  7.9 °C 30in /  1017.3hPa NW 2mph /  3.2km/h 10mph /  16.1km/h 82% 0.01in /  0.2mm 221 W/m2
17:22 51.4 °F /  10.8 °C 45.9 °F /  7.7 °C 30in /  1017.3hPa NW 2mph /  3.2km/h 14mph /  22.5km/h 81% 0.01in /  0.2mm 288 W/m2
17:27 52 °F /  11.1 °C 46 °F /  7.8 °C 30in /  1017.3hPa NNE 2mph /  3.2km/h 7mph /  11.3km/h 80% 0.01in /  0.2mm 179 W/m2
17:32 52.3 °F /  11.3 °C 46 °F /  7.8 °C 30in /  1017.3hPa Calm   9mph /  14.5km/h 79% 0.01in /  0.2mm 239 W/m2
17:37 52.7 °F /  11.5 °C 46 °F /  7.8 °C 30in /  1017.3hPa NNW 6mph /  9.7km/h 10mph /  16.1km/h 78% 0.01in /  0.2mm 279 W/m2
17:42 53.2 °F /  11.8 °C 46.6 °F /  8.1 °C 30in /  1016.9hPa East 4mph /  6.4km/h 4mph /  6.4km/h 78% 0.01in /  0.2mm 276 W/m2
17:47 53.8 °F /  12.1 °C 46.8 °F /  8.2 °C 30in /  1016.9hPa WNW 2mph /  3.2km/h 10mph /  16.1km/h 77% 0.01in /  0.2mm 216 W/m2
17:52 54.5 °F /  12.5 °C 46.8 °F /  8.2 °C 30in /  1016.9hPa NW 0.9mph /  1.4km/h 4mph /  6.4km/h 75% 0.01in /  0.2mm 554 W/m2
17:57 55.4 °F /  13 °C 46.9 °F /  8.3 °C 30in /  1016.9hPa WNW 6.9mph /  11.1km/h 9mph /  14.5km/h 73% 0.01in /  0.2mm 527 W/m2
18:02 56.1 °F /  13.4 °C 46.8 °F /  8.2 °C 30in /  1016.9hPa WNW 4.9mph /  7.9km/h 8mph /  12.9km/h 71% 0in /  0.0mm 304 W/m2
18:07 56.7 °F /  13.7 °C 46.2 °F /  7.9 °C 30in /  1016.9hPa SW 2.9mph /  4.7km/h 11mph /  17.7km/h 68% 0in /  0.0mm 171 W/m2
18:12 56.8 °F /  13.8 °C 46.4 °F /  8 °C 30in /  1016.9hPa SE 2mph /  3.2km/h 4mph /  6.4km/h 68% 0in /  0.0mm 207 W/m2
18:17 56.7 °F /  13.7 °C 45.9 °F /  7.7 °C 30in /  1016.9hPa East 0.9mph /  1.4km/h 12mph /  19.3km/h 67% 0in /  0.0mm 114 W/m2
18:22 56.1 °F /  13.4 °C 45.7 °F /  7.6 °C 30in /  1016.9hPa North 2.9mph /  4.7km/h 8mph /  12.9km/h 68% 0in /  0.0mm 74 W/m2
18:27 55.9 °F /  13.3 °C 45.5 °F /  7.5 °C 30in /  1016.9hPa SE 2.9mph /  4.7km/h 12mph /  19.3km/h 68% 0in /  0.0mm 62 W/m2
18:32 55.8 °F /  13.2 °C 45.7 °F /  7.6 °C 30in /  1017.3hPa West 6.9mph /  11.1km/h 10mph /  16.1km/h 69% 0in /  0.0mm 18 W/m2
18:37 53.6 °F /  12 °C 46.9 °F /  8.3 °C 30.1in /  1017.6hPa West 10.1mph /  16.3km/h 19mph /  30.6km/h 78% 0.03in /  0.8mm 47 W/m2
18:42 51.4 °F /  10.8 °C 46.2 °F /  7.9 °C 30in /  1017.3hPa West 4mph /  6.4km/h 8mph /  12.9km/h 82% 0.03in /  0.8mm 76 W/m2
18:47 50.5 °F /  10.3 °C 45.9 °F /  7.7 °C 30in /  1016.9hPa NW 4.9mph /  7.9km/h 7mph /  11.3km/h 84% 0.04in /  1.0mm 105 W/m2
18:52 50.2 °F /  10.1 °C 45.9 °F /  7.7 °C 30in /  1017.3hPa NW 6mph /  9.7km/h 8mph /  12.9km/h 85% 0.04in /  1.0mm 172 W/m2
18:57 50.4 °F /  10.2 °C 46.4 °F /  8 °C 30in /  1017.3hPa WSW 4mph /  6.4km/h 6mph /  9.7km/h 86% 0.04in /  1.0mm 192 W/m2
19:02 50.5 °F /  10.3 °C 46.2 °F /  7.9 °C 30in /  1017.3hPa ENE 2mph /  3.2km/h 2mph /  3.2km/h 85% 0.04in /  1.0mm 148 W/m2
19:07 50.7 °F /  10.4 °C 46 °F /  7.8 °C 30in /  1017.3hPa WSW 2mph /  3.2km/h 5mph /  8km/h 84% 0.04in /  1.0mm 127 W/m2
19:12 51.1 °F /  10.6 °C 46.8 °F /  8.2 °C 30in /  1017.3hPa Calm   2mph /  3.2km/h 85% 0.04in /  1.0mm 97 W/m2
19:17 51.1 °F /  10.6 °C 46.8 °F /  8.2 °C 30in /  1016.9hPa NW 0.9mph /  1.4km/h 6mph /  9.7km/h 85% 0.04in /  1.0mm 70 W/m2
19:22 50.9 °F /  10.5 °C 46.6 °F /  8.1 °C 30in /  1016.9hPa NW 2.9mph /  4.7km/h 5mph /  8km/h 85% 0.04in /  1.0mm 123 W/m2
19:27 50.9 °F /  10.5 °C 46.6 °F /  8.1 °C 30in /  1016.9hPa West 0.9mph /  1.4km/h 4mph /  6.4km/h 85% 0.04in /  1.0mm 53 W/m2
19:32 50.9 °F /  10.5 °C 46.9 °F /  8.3 °C 30in /  1016.9hPa West 2.9mph /  4.7km/h 5mph /  8km/h 86% 0.04in /  1.0mm 42 W/m2
19:37 50.9 °F /  10.5 °C 46.9 °F /  8.3 °C 30in /  1016.9hPa WNW 2.9mph /  4.7km/h 3mph /  4.8km/h 86% 0.01in /  0.2mm 100 W/m2
19:42 51.1 °F /  10.6 °C 47.1 °F /  8.4 °C 30in /  1016.9hPa WSW 2mph /  3.2km/h 4mph /  6.4km/h 86% 0.01in /  0.2mm 35 W/m2
19:47 51.3 °F /  10.7 °C 47.3 °F /  8.5 °C 30in /  1016.9hPa WNW 0.9mph /  1.4km/h 2mph /  3.2km/h 86% 0in /  0.0mm 32 W/m2
19:52 51.3 °F /  10.7 °C 47.3 °F /  8.5 °C 30in /  1017.3hPa Calm   2mph /  3.2km/h 86% 0in /  0.0mm 18 W/m2
19:57 51.3 °F /  10.7 °C 47.3 °F /  8.5 °C 30in /  1017.3hPa Calm   2mph /  3.2km/h 86% 0in /  0.0mm 28 W/m2
20:02 51.1 °F /  10.6 °C 47.3 °F /  8.5 °C 30in /  1017.3hPa Calm   2mph /  3.2km/h 87% 0in /  0.0mm 35 W/m2
20:07 51.1 °F /  10.6 °C 47.3 °F /  8.5 °C 30in /  1017.3hPa West 0.9mph /  1.4km/h 3mph /  4.8km/h 87% 0in /  0.0mm 33 W/m2
20:12 51.1 °F /  10.6 °C 47.3 °F /  8.5 °C 30in /  1017.3hPa NW 2mph /  3.2km/h 3mph /  4.8km/h 87% 0in /  0.0mm 11 W/m2
20:17 51.1 °F /  10.6 °C 47.3 °F /  8.5 °C 30.1in /  1017.6hPa West 6mph /  9.7km/h 7mph /  11.3km/h 87% 0in /  0.0mm 0 W/m2
20:22 50.7 °F /  10.4 °C 46.9 °F /  8.3 °C 30.1in /  1017.6hPa WSW 4mph /  6.4km/h 15mph /  24.1km/h 87% 0.02in /  0.5mm 5 W/m2
20:27 50 °F /  10 °C 46.2 °F /  7.9 °C 30.1in /  1018.0hPa WSW 4mph /  6.4km/h 9mph /  14.5km/h 87% 0.03in /  0.8mm 5 W/m2
20:32 49.5 °F /  9.7 °C 46 °F /  7.8 °C 30.1in /  1018.0hPa West 4mph /  6.4km/h 14mph /  22.5km/h 88% 0.05in /  1.3mm 5 W/m2
20:37 48.9 °F /  9.4 °C 45.9 °F /  7.7 °C 30.1in /  1017.6hPa WNW 4.9mph /  7.9km/h 12mph /  19.3km/h 89% 0.06in /  1.5mm 7 W/m2
20:42 48.7 °F /  9.3 °C 45.7 °F /  7.6 °C 30.1in /  1018.0hPa West 2mph /  3.2km/h 6mph /  9.7km/h 89% 0.06in /  1.5mm 5 W/m2
20:47 48.7 °F /  9.3 °C 45.9 °F /  7.7 °C 30.1in /  1017.6hPa West 4mph /  6.4km/h 9mph /  14.5km/h 90% 0.07in /  1.8mm 7 W/m2
20:52 48.6 °F /  9.2 °C 45.7 °F /  7.6 °C 30.1in /  1017.6hPa WSW 4mph /  6.4km/h 4mph /  6.4km/h 90% 0.08in /  2.0mm 7 W/m2
20:57 48.6 °F /  9.2 °C 45.7 °F /  7.6 °C 30.1in /  1017.6hPa South 0.9mph /  1.4km/h 9mph /  14.5km/h 90% 0.08in /  2.0mm 7 W/m2
21:02 48.6 °F /  9.2 °C 46 °F /  7.8 °C 30.1in /  1017.6hPa NNW 2mph /  3.2km/h 2mph /  3.2km/h 91% 0.08in /  2.0mm 5 W/m2
21:07 48.7 °F /  9.3 °C 46.2 °F /  7.9 °C 30.1in /  1017.6hPa WNW 2.9mph /  4.7km/h 4mph /  6.4km/h 91% 0.09in /  2.3mm 0 W/m2
21:12 48.9 °F /  9.4 °C 46 °F /  7.8 °C 30.1in /  1017.6hPa WNW 2.9mph /  4.7km/h 7mph /  11.3km/h 90% 0.09in /  2.3mm 0 W/m2
21:17 48.9 °F /  9.4 °C 46 °F /  7.8 °C 30.1in /  1017.6hPa WSW 6mph /  9.7km/h 8mph /  12.9km/h 90% 0.09in /  2.3mm 0 W/m2
21:22 49.3 °F /  9.6 °C 46.4 °F /  8 °C 30.1in /  1017.6hPa West 4mph /  6.4km/h 4mph /  6.4km/h 90% 0.06in /  1.5mm 0 W/m2
21:27 49.3 °F /  9.6 °C 46.2 °F /  7.9 °C 30.1in /  1017.6hPa NW 10.1mph /  16.3km/h 10mph /  16.1km/h 89% 0.06in /  1.5mm 0 W/m2
21:32 49.5 °F /  9.7 °C 46.4 °F /  8 °C 30.1in /  1017.6hPa NW 2mph /  3.2km/h 2mph /  3.2km/h 89% 0.04in /  1.0mm 0 W/m2
21:37 49.6 °F /  9.8 °C 46.2 °F /  7.9 °C 30.1in /  1017.6hPa SW 2.9mph /  4.7km/h 9mph /  14.5km/h 88% 0.03in /  0.8mm 0 W/m2
21:42 49.6 °F /  9.8 °C 46.2 °F /  7.9 °C 30.1in /  1017.6hPa West 0.9mph /  1.4km/h 4mph /  6.4km/h 88% 0.02in /  0.5mm 0 W/m2
21:47 49.6 °F /  9.8 °C 46.2 °F /  7.9 °C 30.1in /  1017.6hPa Calm     88% 0.02in /  0.5mm 0 W/m2
21:52 49.6 °F /  9.8 °C 46.2 °F /  7.9 °C 30.1in /  1017.6hPa NNE 2mph /  3.2km/h 2mph /  3.2km/h 88% 0.01in /  0.2mm 0 W/m2
21:57 49.5 °F /  9.7 °C 46.4 °F /  8 °C 30.1in /  1017.6hPa NE 0.9mph /  1.4km/h 2mph /  3.2km/h 89% 0.01in /  0.2mm 0 W/m2
22:02 49.3 °F /  9.6 °C 46.4 °F /  8 °C 30.1in /  1017.6hPa NE 0.9mph /  1.4km/h 2mph /  3.2km/h 90% 0.01in /  0.2mm 0 W/m2
22:07 48.9 °F /  9.4 °C 46 °F /  7.8 °C 30.1in /  1017.6hPa NE 0.9mph /  1.4km/h 2mph /  3.2km/h 90% 0in /  0.0mm 0 W/m2
22:12 48.9 °F /  9.4 °C 46.4 °F /  8 °C 30.1in /  1017.6hPa Calm   1mph /  1.6km/h 91% 0in /  0.0mm 0 W/m2
22:17 48.7 °F /  9.3 °C 46.6 °F /  8.1 °C 30.1in /  1017.6hPa ESE 0.9mph /  1.4km/h 3mph /  4.8km/h 92% 0in /  0.0mm 0 W/m2
22:22 48.6 °F /  9.2 °C 46 °F /  7.8 °C 30.1in /  1017.6hPa East 0.9mph /  1.4km/h 2mph /  3.2km/h 91% 0in /  0.0mm 0 W/m2
22:27 48.6 °F /  9.2 °C 46 °F /  7.8 °C 30.1in /  1017.6hPa Calm   1mph /  1.6km/h 91% 0in /  0.0mm 0 W/m2
22:32 48.6 °F /  9.2 °C 46.4 °F /  8 °C 30.1in /  1017.6hPa NE 0.9mph /  1.4km/h 1mph /  1.6km/h 92% 0in /  0.0mm 0 W/m2
22:37 48.6 °F /  9.2 °C 46.4 °F /  8 °C 30.1in /  1017.6hPa Calm   3mph /  4.8km/h 92% 0in /  0.0mm 0 W/m2
22:42 48.4 °F /  9.1 °C 46.2 °F /  7.9 °C 30.1in /  1017.6hPa SE 0.9mph /  1.4km/h 2mph /  3.2km/h 92% 0in /  0.0mm 0 W/m2
22:47 48.4 °F /  9.1 °C 46.2 °F /  7.9 °C 30.1in /  1017.6hPa Calm   3mph /  4.8km/h 92% 0in /  0.0mm 0 W/m2
22:52 48.2 °F /  9 °C 46 °F /  7.8 °C 30in /  1017.3hPa Calm   1mph /  1.6km/h 92% 0in /  0.0mm 0 W/m2
22:57 48.2 °F /  9 °C 46 °F /  7.8 °C 30.1in /  1017.6hPa Calm   1mph /  1.6km/h 92% 0in /  0.0mm 0 W/m2
23:02 48 °F /  8.9 °C 45.9 °F /  7.7 °C 30in /  1017.3hPa Calm   1mph /  1.6km/h 92% 0in /  0.0mm 0 W/m2
23:08 47.8 °F /  8.8 °C 45.7 °F /  7.6 °C 30in /  1017.3hPa Calm     92% 0in /  0.0mm 0 W/m2
23:13 47.8 °F /  8.8 °C 45.7 °F /  7.6 °C 30in /  1017.3hPa Calm   1mph /  1.6km/h 92% 0in /  0.0mm 0 W/m2
23:18 47.7 °F /  8.7 °C 45.5 °F /  7.5 °C 30in /  1017.3hPa Calm   1mph /  1.6km/h 92% 0in /  0.0mm 0 W/m2
23:23 47.7 °F /  8.7 °C 45.7 °F /  7.6 °C 30in /  1017.3hPa Calm   1mph /  1.6km/h 93% 0in /  0.0mm 0 W/m2
23:28 47.7 °F /  8.7 °C 45.7 °F /  7.6 °C 30.1in /  1017.6hPa West 6mph /  9.7km/h 6mph /  9.7km/h 93% 0in /  0.0mm 0 W/m2
23:33 48 °F /  8.9 °C 46 °F /  7.8 °C 30.1in /  1018.0hPa WSW 4mph /  6.4km/h 9mph /  14.5km/h 93% 0in /  0.0mm 0 W/m2
23:38 48.4 °F /  9.1 °C 46.2 °F /  7.9 °C 30.1in /  1017.6hPa WNW 2mph /  3.2km/h 8mph /  12.9km/h 92% 0in /  0.0mm 0 W/m2
23:43 48.6 °F /  9.2 °C 46 °F /  7.8 °C 30.1in /  1017.6hPa West 8.9mph /  14.3km/h 9mph /  14.5km/h 91% 0in /  0.0mm 0 W/m2
23:48 48.6 °F /  9.2 °C 46 °F /  7.8 °C 30.1in /  1017.6hPa WNW 0.9mph /  1.4km/h 6mph /  9.7km/h 91% 0in /  0.0mm 0 W/m2
23:53 48.6 °F /  9.2 °C 46 °F /  7.8 °C 30.1in /  1017.6hPa West 2mph /  3.2km/h 4mph /  6.4km/h 91% 0in /  0.0mm 0 W/m2
23:58 48.4 °F /  9.1 °C 45.9 °F /  7.7 °C 30.1in /  1017.6hPa SW 2mph /  3.2km/h 6mph /  9.7km/h 91% 0in /  0.0mm 0 W/m2
Juneau County Weather
Compliments of Weather Underground - 4 mb